createdAt,value
2019-05-15T00:02:01.399Z,48.64
2019-05-15T00:04:31.567Z,48.88
2019-05-15T00:07:01.774Z,47.96
2019-05-15T00:09:31.869Z,48.35
2019-05-15T00:12:02.011Z,49.06
2019-05-15T00:14:32.184Z,47.75
2019-05-15T00:17:02.372Z,49.35
2019-05-15T00:19:32.720Z,47.35
2019-05-15T00:22:02.817Z,48.21
2019-05-15T00:24:33.004Z,48.67
2019-05-15T00:27:03.138Z,48.51
2019-05-15T00:29:33.578Z,48.86
2019-05-15T00:32:03.677Z,49.47
2019-05-15T00:34:34.058Z,49.06
2019-05-15T00:37:03.823Z,49.44
2019-05-15T00:39:33.891Z,48.74
2019-05-15T00:42:04.086Z,48.81
2019-05-15T00:44:34.205Z,48.71
2019-05-15T00:47:04.408Z,48.99
2019-05-15T00:49:34.642Z,48.51
2019-05-15T00:52:05.073Z,48.68
2019-05-15T00:54:35.080Z,46.93
2019-05-15T00:57:05.142Z,48.43
2019-05-15T00:59:35.441Z,47.74
2019-05-15T01:02:05.441Z,47.01
2019-05-15T01:04:35.668Z,48.06
2019-05-15T01:07:08.144Z,46.87
2019-05-15T01:09:38.445Z,47.47
2019-05-15T01:12:09.063Z,47.31
2019-05-15T01:14:38.780Z,47.05
2019-05-15T01:17:09.264Z,47.17
2019-05-15T01:19:38.742Z,47.03
2019-05-15T01:22:08.761Z,46.91
2019-05-15T01:24:38.938Z,46.48
2019-05-15T01:27:09.123Z,45.82
2019-05-15T01:29:44.836Z,45.05
2019-05-15T01:32:09.732Z,45.29
2019-05-15T01:34:39.114Z,45.78
2019-05-15T01:37:08.697Z,44.94
2019-05-15T01:39:39.111Z,46.06
2019-05-15T01:42:08.547Z,45.27
2019-05-15T01:44:39.063Z,45.68
2019-05-15T01:47:08.698Z,45.58
2019-05-15T01:49:38.848Z,46.15
2019-05-15T01:52:08.972Z,45.61
2019-05-15T01:54:39.305Z,45.85
2019-05-15T01:57:09.483Z,45.88
2019-05-15T01:59:53.708Z,44.79
2019-05-15T02:02:10.944Z,45.50
2019-05-15T02:04:40.322Z,46.17
2019-05-15T02:07:10.671Z,46.38
2019-05-15T02:09:40.070Z,47.02
2019-05-15T02:12:10.346Z,46.25
2019-05-15T02:14:40.361Z,46.61
2019-05-15T02:17:10.481Z,46.51
2019-05-15T02:19:40.803Z,46.28
2019-05-15T02:22:10.874Z,45.40
2019-05-15T02:24:41.036Z,46.30
2019-05-15T02:27:11.388Z,46.96
2019-05-15T02:29:41.432Z,45.80
2019-05-15T02:32:11.608Z,46.90
2019-05-15T02:34:41.839Z,46.14
2019-05-15T02:37:11.932Z,47.04
2019-05-15T02:39:42.260Z,45.96
2019-05-15T02:42:12.392Z,45.79
2019-05-15T02:44:42.912Z,46.42
2019-05-15T02:47:12.754Z,46.85
2019-05-15T02:49:43.080Z,47.51
2019-05-15T02:52:13.255Z,48.36
2019-05-15T02:54:43.413Z,45.88
2019-05-15T02:57:13.564Z,46.13
2019-05-15T02:59:43.868Z,45.18
2019-05-15T03:02:14.222Z,45.29
2019-05-15T03:04:44.090Z,45.77
2019-05-15T03:07:14.340Z,46.61
2019-05-15T03:09:44.514Z,46.53
2019-05-15T03:12:14.945Z,45.16
2019-05-15T03:14:45.048Z,45.12
2019-05-15T03:17:15.006Z,45.92
2019-05-15T03:19:45.147Z,45.50
2019-05-15T03:22:15.368Z,45.73
2019-05-15T03:24:45.623Z,46.15
2019-05-15T03:27:15.601Z,46.91
2019-05-15T03:29:49.151Z,46.54
2019-05-15T03:32:27.686Z,46.13
2019-05-15T03:34:55.760Z,46.03
2019-05-15T03:37:22.223Z,47.64
2019-05-15T03:39:52.041Z,47.15
2019-05-15T03:42:21.572Z,47.37
2019-05-15T03:44:50.999Z,47.18
2019-05-15T03:47:21.366Z,47.88
2019-05-15T03:49:51.704Z,47.29
2019-05-15T03:52:21.140Z,48.61
2019-05-15T03:54:51.568Z,46.75
2019-05-15T03:57:23.166Z,47.78
2019-05-15T03:59:52.909Z,47.26
2019-05-15T04:02:22.358Z,46.66
2019-05-15T04:04:51.753Z,46.81
2019-05-15T04:07:21.128Z,47.67
2019-05-15T04:09:50.881Z,47.05
2019-05-15T04:12:20.297Z,46.01
2019-05-15T04:14:50.290Z,46.09
2019-05-15T04:17:19.963Z,47.02
2019-05-15T04:19:49.731Z,47.46
2019-05-15T04:22:20.055Z,46.54
2019-05-15T04:24:51.196Z,47.15
2019-05-15T04:27:22.214Z,46.06
2019-05-15T04:29:51.760Z,47.45
2019-05-15T04:32:21.293Z,46.75
2019-05-15T04:34:50.674Z,46.45
2019-05-15T04:37:20.503Z,47.53
2019-05-15T04:39:50.701Z,46.30
2019-05-15T04:42:20.951Z,47.07
2019-05-15T04:44:51.067Z,46.27
2019-05-15T04:47:21.154Z,49.42
2019-05-15T04:49:51.417Z,48.69
2019-05-15T04:52:21.927Z,47.76
2019-05-15T04:54:52.283Z,46.94
2019-05-15T04:57:21.859Z,46.67
2019-05-15T04:59:52.172Z,48.55
2019-05-15T05:02:26.509Z,47.21
2019-05-15T05:04:53.525Z,48.18
2019-05-15T05:07:23.434Z,47.34
2019-05-15T05:09:52.893Z,49.56
2019-05-15T05:12:23.013Z,47.77
2019-05-15T05:14:53.227Z,47.16
2019-05-15T05:17:23.305Z,47.16
2019-05-15T05:19:53.551Z,48.21
2019-05-15T05:22:23.639Z,48.15
2019-05-15T05:24:54.772Z,47.57
2019-05-15T05:27:25.207Z,47.97
2019-05-15T05:29:55.275Z,47.73
2019-05-15T05:32:33.864Z,48.74
2019-05-15T05:34:58.865Z,49.49
2019-05-15T05:37:28.374Z,47.41
2019-05-15T05:39:57.798Z,47.89
2019-05-15T05:42:29.114Z,47.41
2019-05-15T05:44:58.318Z,47.85
2019-05-15T05:47:28.816Z,46.26
2019-05-15T05:49:58.281Z,47.32
2019-05-15T05:52:28.085Z,46.63
2019-05-15T05:54:58.113Z,47.96
2019-05-15T05:57:28.032Z,48.80
2019-05-15T05:59:58.276Z,46.42
2019-05-15T06:02:28.081Z,46.71
2019-05-15T06:04:58.295Z,47.49
2019-05-15T06:07:28.026Z,46.73
2019-05-15T06:09:58.182Z,47.62
2019-05-15T06:12:28.291Z,48.50
2019-05-15T06:14:58.417Z,47.58
2019-05-15T06:17:28.568Z,47.43
2019-05-15T06:19:58.800Z,47.88
2019-05-15T06:22:28.992Z,47.09
2019-05-15T06:24:59.231Z,47.44
2019-05-15T06:27:29.575Z,47.93
2019-05-15T06:29:59.790Z,46.56
2019-05-15T06:32:29.979Z,48.92
2019-05-15T06:35:00.185Z,47.01
2019-05-15T06:37:30.572Z,46.43
2019-05-15T06:40:00.661Z,45.27
2019-05-15T06:42:31.142Z,45.96
2019-05-15T06:45:01.342Z,45.83
2019-05-15T06:47:31.505Z,45.61
2019-05-15T06:50:01.684Z,46.05
2019-05-15T06:52:31.944Z,45.60
2019-05-15T06:55:02.224Z,45.01
2019-05-15T06:57:32.445Z,45.14
2019-05-15T07:00:03.136Z,46.17
2019-05-15T07:02:33.198Z,47.51
2019-05-15T07:05:03.187Z,46.63
2019-05-15T07:07:33.579Z,47.03
2019-05-15T07:10:04.870Z,45.72
2019-05-15T07:12:34.497Z,45.28
2019-05-15T07:15:09.362Z,45.28
2019-05-15T07:17:39.403Z,45.90
2019-05-15T07:20:12.614Z,44.86
2019-05-15T07:22:41.993Z,46.28
2019-05-15T07:25:11.659Z,47.31
2019-05-15T07:27:40.989Z,46.14
2019-05-15T07:30:12.453Z,47.36
2019-05-15T07:32:41.914Z,45.51
2019-05-15T07:35:11.825Z,44.98
2019-05-15T07:37:41.280Z,45.22
2019-05-15T07:40:11.001Z,45.91
2019-05-15T07:42:40.384Z,45.55
2019-05-15T07:45:10.606Z,46.38
2019-05-15T07:47:40.066Z,44.74
2019-05-15T07:50:11.644Z,44.78
2019-05-15T07:52:41.358Z,43.45
2019-05-15T07:55:11.878Z,44.38
2019-05-15T07:57:41.250Z,42.96
2019-05-15T08:00:12.850Z,42.51
2019-05-15T08:02:42.369Z,44.18
2019-05-15T08:05:13.954Z,44.27
2019-05-15T08:07:43.344Z,44.72
2019-05-15T08:10:13.265Z,43.74
2019-05-15T08:12:42.645Z,44.37
2019-05-15T08:15:18.267Z,44.50
2019-05-15T08:18:04.163Z,44.22
2019-05-15T08:20:19.579Z,43.75
2019-05-15T08:22:49.172Z,43.43
2019-05-15T08:25:31.206Z,43.86
2019-05-15T08:27:50.043Z,42.76
2019-05-15T08:30:20.977Z,43.22
2019-05-15T08:32:51.718Z,43.54
2019-05-15T08:35:21.364Z,43.12
2019-05-15T08:37:50.808Z,42.89
2019-05-15T08:40:20.437Z,43.12
2019-05-15T08:42:56.853Z,43.74
2019-05-15T08:45:21.396Z,44.82
2019-05-15T08:47:50.783Z,44.30
2019-05-15T08:50:20.609Z,45.51
2019-05-15T08:52:49.996Z,44.37
2019-05-15T08:55:20.227Z,44.30
2019-05-15T08:57:55.408Z,45.20
2019-05-15T09:00:22.207Z,46.43
2019-05-15T09:02:51.646Z,44.35
2019-05-15T09:05:21.265Z,44.68
2019-05-15T09:07:50.724Z,46.78
2019-05-15T09:10:20.344Z,47.08
2019-05-15T09:12:50.383Z,47.15
2019-05-15T09:15:20.088Z,47.52
2019-05-15T09:17:49.473Z,46.03
2019-05-15T09:20:19.620Z,44.29
2019-05-15T09:22:49.253Z,43.94
2019-05-15T09:25:19.512Z,46.37
2019-05-15T09:27:49.063Z,45.86
2019-05-15T09:30:18.541Z,44.57
2019-05-15T09:32:48.585Z,45.27
2019-05-15T09:35:41.647Z,43.99
2019-05-15T09:38:11.036Z,43.77
2019-05-15T09:40:46.301Z,44.60
2019-05-15T09:43:11.662Z,45.78
2019-05-15T09:45:41.081Z,46.32
2019-05-15T09:48:14.504Z,45.61
2019-05-15T09:50:41.539Z,45.57
2019-05-15T09:53:10.998Z,45.42
2019-05-15T09:55:40.404Z,46.27
2019-05-15T09:58:09.875Z,46.47
2019-05-15T10:00:40.344Z,43.66
2019-05-15T10:03:09.804Z,44.35
2019-05-15T10:05:39.203Z,42.68
2019-05-15T10:08:09.127Z,41.79
2019-05-15T10:10:38.550Z,42.68
2019-05-15T10:13:09.001Z,41.22
2019-05-15T10:15:39.110Z,42.03
2019-05-15T10:18:09.927Z,40.40
2019-05-15T10:20:39.590Z,39.84
2019-05-15T10:23:09.062Z,41.60
2019-05-15T10:25:38.984Z,40.12
2019-05-15T10:28:10.011Z,40.75
2019-05-15T10:30:40.699Z,40.37
2019-05-15T10:33:10.103Z,39.72
2019-05-15T10:35:39.530Z,39.98
2019-05-15T10:38:09.064Z,40.67
2019-05-15T10:40:41.083Z,40.82
2019-05-15T10:43:09.539Z,41.78
2019-05-15T10:45:42.161Z,41.42
2019-05-15T10:48:10.395Z,41.18
2019-05-15T10:50:39.781Z,39.71
2019-05-15T10:53:11.299Z,39.68
2019-05-15T10:55:40.450Z,41.07
2019-05-15T10:58:16.661Z,41.07
2019-05-15T11:00:40.947Z,40.32
2019-05-15T11:03:10.406Z,39.21
2019-05-15T11:05:45.268Z,40.85
2019-05-15T11:08:10.879Z,40.75
2019-05-15T11:10:41.884Z,40.95
2019-05-15T11:13:11.561Z,41.75
2019-05-15T11:15:42.685Z,40.79
2019-05-15T11:18:12.318Z,42.27
2019-05-15T11:20:41.988Z,43.54
2019-05-15T11:23:13.001Z,41.42
2019-05-15T11:25:42.395Z,41.71
2019-05-15T11:28:11.943Z,42.38
2019-05-15T11:30:41.546Z,43.03
2019-05-15T11:33:11.193Z,41.73
2019-05-15T11:35:55.390Z,42.59
2019-05-15T11:38:11.758Z,42.00
2019-05-15T11:40:41.144Z,43.16
2019-05-15T11:43:10.522Z,42.97
2019-05-15T11:45:40.052Z,41.37
2019-05-15T11:48:09.491Z,42.19
2019-05-15T11:50:39.965Z,39.90
2019-05-15T11:53:09.693Z,42.48
2019-05-15T11:55:39.086Z,41.75
2019-05-15T11:58:09.347Z,43.26
2019-05-15T12:00:38.995Z,42.05
2019-05-15T12:03:08.935Z,41.74
2019-05-15T12:05:38.918Z,41.93
2019-05-15T12:08:09.711Z,41.27
2019-05-15T12:10:39.795Z,40.87
2019-05-15T12:15:40.267Z,43.12
2019-05-15T12:18:09.642Z,43.13
2019-05-15T12:20:39.230Z,43.35
2019-05-15T12:23:09.424Z,43.35
2019-05-15T12:25:39.804Z,43.35
2019-05-15T12:28:10.229Z,43.27
2019-05-15T12:30:40.573Z,43.80
2019-05-15T12:33:10.177Z,43.49
2019-05-15T12:35:40.323Z,44.23
2019-05-15T12:38:10.434Z,44.11
2019-05-15T13:00:50.773Z,44.58
2019-05-15T13:03:20.158Z,44.38
2019-05-15T13:05:49.553Z,47.17
2019-05-15T13:08:20.085Z,46.72
2019-05-15T13:10:49.466Z,46.35
2019-05-15T13:13:18.928Z,44.65
2019-05-15T13:15:48.415Z,46.81
2019-05-15T13:18:18.125Z,45.49
2019-05-15T13:20:49.033Z,45.82
2019-05-15T13:23:18.523Z,45.34
2019-05-15T13:25:48.495Z,46.18
2019-05-15T13:28:18.524Z,45.73
2019-05-15T13:30:49.002Z,47.04
2019-05-15T13:33:18.596Z,46.99
2019-05-15T13:35:48.638Z,46.66
2019-05-15T13:38:18.168Z,46.13
2019-05-15T13:40:48.145Z,46.99
2019-05-15T13:43:18.580Z,47.31
2019-05-15T13:45:49.082Z,50.13
2019-05-15T13:48:19.979Z,48.47
2019-05-15T13:50:50.585Z,47.97
2019-05-15T13:53:20.161Z,49.07
2019-05-15T13:55:49.535Z,49.88
2019-05-15T13:58:19.055Z,49.23
2019-05-15T14:00:49.350Z,48.04
2019-05-15T14:03:18.862Z,50.08
2019-05-15T14:05:49.756Z,50.88
2019-05-15T14:08:19.410Z,51.04
2019-05-15T14:10:48.964Z,50.87
2019-05-15T14:13:19.413Z,50.26
2019-05-15T14:15:48.954Z,50.97
2019-05-15T14:18:19.812Z,53.40
2019-05-15T14:20:49.672Z,53.07
2019-05-15T14:23:19.064Z,54.18
2019-05-15T14:25:48.517Z,51.21
2019-05-15T14:28:18.930Z,52.48
2019-05-15T14:30:48.467Z,52.65
2019-05-15T14:33:19.487Z,52.65
2019-05-15T14:35:48.905Z,52.80
2019-05-15T14:38:18.669Z,54.25
2019-05-15T14:40:48.295Z,54.16
2019-05-15T14:43:18.559Z,56.52
2019-05-15T14:45:48.912Z,56.73
2019-05-15T14:48:19.039Z,54.02
2019-05-15T14:50:48.659Z,57.09
2019-05-15T14:53:18.682Z,56.06
2019-05-15T14:55:49.190Z,53.60
2019-05-15T14:58:19.826Z,55.57
2019-05-15T15:00:50.304Z,56.58
2019-05-15T15:03:19.809Z,54.51
2019-05-15T15:05:49.333Z,54.57
2019-05-15T15:08:25.010Z,55.02
2019-05-15T15:10:49.827Z,53.93
2019-05-15T15:13:19.196Z,57.40
2019-05-15T15:15:48.832Z,59.84
2019-05-15T15:18:18.631Z,57.11
2019-05-15T15:20:49.005Z,55.16
2019-05-15T15:23:18.377Z,55.82
2019-05-15T15:25:48.355Z,52.57
2019-05-15T15:28:18.909Z,54.78
2019-05-15T15:30:48.744Z,53.21
2019-05-15T15:33:18.128Z,53.74
2019-05-15T15:35:48.771Z,54.17
2019-05-15T15:38:26.786Z,52.88
2019-05-15T15:40:49.358Z,56.07
2019-05-15T15:43:19.148Z,57.01
2019-05-15T15:45:48.527Z,56.78
2019-05-15T15:48:19.316Z,56.49
2019-05-15T15:50:48.905Z,55.94
2019-05-15T15:53:19.334Z,55.42
2019-05-15T15:55:49.021Z,58.10
2019-05-15T15:58:19.951Z,57.04
2019-05-15T16:00:49.561Z,60.61
2019-05-15T16:03:19.469Z,60.74
2019-05-15T16:05:48.998Z,62.04
2019-05-15T16:08:19.071Z,63.75
2019-05-15T16:10:48.537Z,63.52
2019-05-15T16:13:18.824Z,61.99
2019-05-15T16:15:48.780Z,65.87
2019-05-15T16:18:18.595Z,66.09
2019-05-15T16:20:48.675Z,65.50
2019-05-15T16:23:18.939Z,64.15
2019-05-15T16:25:49.028Z,63.54
2019-05-15T16:28:19.285Z,64.78
2019-05-15T16:30:51.538Z,65.31
2019-05-15T16:33:22.063Z,65.03
2019-05-15T16:36:13.999Z,66.23
2019-05-15T16:38:43.770Z,64.73
2019-05-15T16:41:18.336Z,63.58
2019-05-15T16:43:48.533Z,64.87
2019-05-15T16:46:19.198Z,65.25
2019-05-15T16:48:49.559Z,64.37
2019-05-15T16:51:19.524Z,63.37
2019-05-15T16:53:49.297Z,64.20
2019-05-15T16:56:19.880Z,69.75
2019-05-15T16:58:49.945Z,72.26
2019-05-15T17:01:19.620Z,71.21
2019-05-15T17:03:49.480Z,71.56
2019-05-15T17:06:19.915Z,73.27
2019-05-15T17:08:54.647Z,74.64
2019-05-15T17:11:25.397Z,74.61
2019-05-15T17:13:55.122Z,74.53
2019-05-15T17:16:25.011Z,73.57
2019-05-15T17:18:58.115Z,74.35
2019-05-15T17:21:28.493Z,76.13
2019-05-15T17:23:58.431Z,74.83
2019-05-15T17:26:28.949Z,74.24
2019-05-15T17:29:00.327Z,73.97
2019-05-15T17:31:30.506Z,75.77
2019-05-15T17:34:00.486Z,76.78
2019-05-15T17:36:32.774Z,75.42
2019-05-15T17:39:02.581Z,75.65
2019-05-15T17:41:35.703Z,77.98
2019-05-15T17:44:05.635Z,76.75
2019-05-15T17:46:38.572Z,75.67
2019-05-15T17:49:14.977Z,78.36
2019-05-15T17:51:39.312Z,78.08
2019-05-15T17:54:09.065Z,78.08
2019-05-15T17:56:39.471Z,78.07
2019-05-15T17:59:10.055Z,78.18
2019-05-15T18:01:39.723Z,78.62
2019-05-15T18:04:12.453Z,79.63
2019-05-15T18:06:42.139Z,76.10
2019-05-15T18:09:12.561Z,78.35
2019-05-15T18:11:44.540Z,78.35
2019-05-15T18:14:14.211Z,78.51
2019-05-15T18:16:44.275Z,79.57
2019-05-15T18:19:14.863Z,78.13
2019-05-15T18:21:44.806Z,80.16
2019-05-15T18:24:14.272Z,80.34
2019-05-15T18:26:43.726Z,80.61
2019-05-15T18:29:13.693Z,81.05
2019-05-15T18:31:43.611Z,78.86
2019-05-15T18:34:13.662Z,80.60
2019-05-15T18:36:45.564Z,80.65
2019-05-15T18:39:17.019Z,80.23
2019-05-15T18:41:48.466Z,79.13
2019-05-15T18:44:18.870Z,78.43
2019-05-15T18:46:50.193Z,79.21
2019-05-15T18:49:19.732Z,78.37
2019-05-15T18:51:49.452Z,78.29
2019-05-15T18:54:19.306Z,79.47
2019-05-15T18:56:50.106Z,78.34
2019-05-15T18:59:21.347Z,71.86
2019-05-15T19:01:53.023Z,68.32
2019-05-15T19:04:23.071Z,77.43
2019-05-15T19:06:53.307Z,78.91
2019-05-15T19:09:23.645Z,76.70
2019-05-15T19:11:54.094Z,80.62
2019-05-15T19:14:23.556Z,80.92
2019-05-15T19:16:53.715Z,81.79
2019-05-15T19:19:23.874Z,81.26
2019-05-15T19:21:54.207Z,78.98
2019-05-15T19:24:24.872Z,77.30
2019-05-15T19:26:54.583Z,78.44
2019-05-15T19:29:24.772Z,77.75
2019-05-15T19:31:54.847Z,79.42
2019-05-15T19:34:25.009Z,80.84
2019-05-15T19:36:55.105Z,80.41
2019-05-15T19:39:25.354Z,79.99
2019-05-15T19:41:55.585Z,79.19
2019-05-15T19:44:25.622Z,81.34
2019-05-15T19:46:55.825Z,81.68
2019-05-15T19:49:26.314Z,80.70
2019-05-15T19:51:58.121Z,80.89
2019-05-15T19:54:28.931Z,80.35
2019-05-15T19:56:58.624Z,80.51
2019-05-15T19:59:29.540Z,79.52
2019-05-15T20:01:59.570Z,81.06
2019-05-15T20:04:29.126Z,81.06
2019-05-15T20:06:58.577Z,81.07
2019-05-15T20:09:28.041Z,79.94
2019-05-15T20:11:58.531Z,81.19
2019-05-15T20:14:28.834Z,81.87
2019-05-15T20:16:58.998Z,81.84
2019-05-15T20:19:28.907Z,82.22
2019-05-15T20:21:59.483Z,80.91
2019-05-15T20:24:29.848Z,80.62
2019-05-15T20:26:59.364Z,81.01
2019-05-15T20:29:29.401Z,80.10
2019-05-15T20:31:59.810Z,80.13
2019-05-15T20:34:29.952Z,79.97
2019-05-15T20:37:00.238Z,79.99
2019-05-15T20:39:30.490Z,79.07
2019-05-15T20:42:00.770Z,78.08
2019-05-15T20:44:30.909Z,78.53
2019-05-15T20:47:01.269Z,77.13
2019-05-15T20:49:31.580Z,76.72
2019-05-15T20:52:01.827Z,76.90
2019-05-15T20:54:32.127Z,77.01
2019-05-15T20:57:02.209Z,76.62
2019-05-15T20:59:32.551Z,77.23
2019-05-15T21:02:02.723Z,77.02
2019-05-15T21:04:33.013Z,78.12
2019-05-15T21:07:03.246Z,77.88
2019-05-15T21:09:33.511Z,76.35
2019-05-15T21:12:03.857Z,76.71
2019-05-15T21:14:33.907Z,76.50
2019-05-15T21:17:04.240Z,76.54
2019-05-15T21:19:34.686Z,77.70
2019-05-15T21:22:04.800Z,77.00
2019-05-15T21:24:34.808Z,76.69
2019-05-15T21:27:05.120Z,77.10
2019-05-15T21:29:35.249Z,78.60
2019-05-15T21:32:08.326Z,78.27
2019-05-15T21:34:40.718Z,77.17
2019-05-15T21:37:08.586Z,77.16
2019-05-15T21:39:39.115Z,77.98
2019-05-15T21:42:09.031Z,79.12
2019-05-15T21:44:39.577Z,79.32
2019-05-15T21:47:08.950Z,79.28
2019-05-15T21:49:38.859Z,78.43
2019-05-15T21:52:08.371Z,79.14
2019-05-15T21:54:38.590Z,79.33
2019-05-15T21:57:29.133Z,78.22
2019-05-15T21:59:39.114Z,78.43
2019-05-15T22:02:10.523Z,78.87
2019-05-15T22:04:51.344Z,79.63
2019-05-15T22:07:11.035Z,79.78
2019-05-15T22:09:40.427Z,79.45
2019-05-15T22:12:10.255Z,78.29
2019-05-15T22:14:40.059Z,78.03
2019-05-15T22:17:09.782Z,77.68
2019-05-15T22:19:39.913Z,78.01
2019-05-15T22:22:10.352Z,76.91
2019-05-15T22:24:40.636Z,77.13
2019-05-15T22:27:10.804Z,77.21
2019-05-15T22:29:40.872Z,78.02
2019-05-15T22:32:11.225Z,79.38
2019-05-15T22:34:41.436Z,79.01
2019-05-15T22:37:12.063Z,78.03
2019-05-15T22:39:41.884Z,78.80
2019-05-15T22:42:12.241Z,77.74
2019-05-15T22:44:42.372Z,77.06
2019-05-15T22:47:12.735Z,76.49
2019-05-15T22:49:42.888Z,75.24
2019-05-15T22:52:13.356Z,75.53
2019-05-15T22:54:43.429Z,74.43
2019-05-15T22:57:13.870Z,73.88
2019-05-15T22:59:43.872Z,73.04
2019-05-15T23:02:14.097Z,73.37
2019-05-15T23:04:44.271Z,73.94
2019-05-15T23:07:14.472Z,74.05
2019-05-15T23:09:44.721Z,74.60
2019-05-15T23:12:14.930Z,74.91
2019-05-15T23:14:45.205Z,75.62
2019-05-15T23:17:15.599Z,76.57
2019-05-15T23:19:45.695Z,77.63
2019-05-15T23:22:15.923Z,77.34
2019-05-15T23:24:47.890Z,77.23
2019-05-15T23:27:18.124Z,76.30
2019-05-15T23:29:49.085Z,77.18
2019-05-15T23:32:18.561Z,77.26
2019-05-15T23:34:49.170Z,77.24
2019-05-15T23:37:18.610Z,77.07
2019-05-15T23:39:48.676Z,76.91
2019-05-15T23:42:18.540Z,75.72
2019-05-15T23:44:48.768Z,74.36
2019-05-15T23:47:18.392Z,73.83
2019-05-15T23:49:48.736Z,76.11
2019-05-15T23:52:18.835Z,74.88
2019-05-15T23:54:49.037Z,74.63
2019-05-15T23:57:18.417Z,71.11
2019-05-15T23:59:49.616Z,71.32
